Time;durP1;ratioP1;P1;durP2;ratioP2;P2;SDS_P1;SDS_P2;PMS_P1;PMS_P2;Temp;Humidity;BMP_temperature;BMP_pressure;BME280_temperature;BME280_humidity;BME280_pressure;Samples;Min_cycle;Max_cycle;Signal;HPM_P1;HPM_P2
2022/06/25 00:01:11;;;;;;;;;;;;;;;15.12;94.66;96261.88;5096756;28;19989;-74
2022/06/25 00:03:37;;;;;;;;;;;;;;;15.09;95.42;96257.91;5096577;28;19959;-75
2022/06/25 00:06:03;;;;;;;;;;;;;;;15.09;94.96;96260.53;5096661;28;19960;-74
2022/06/25 00:08:29;;;;;;;;;;;;;;;15.08;95.56;96256.31;5096793;28;20444;-74
2022/06/25 00:10:55;;;;;;;;;;;;;;;15.04;95.01;96265.00;5096667;28;19961;-74
2022/06/25 00:13:21;;;;;;;;;;;;;;;14.99;94.45;96266.56;5096675;28;19971;-74
2022/06/25 00:15:47;;;;;;;;;;;;;;;14.93;94.78;96264.09;5096905;28;20485;-74
2022/06/25 00:18:14;;;;;;;;;;;;;;;14.89;95.26;96276.19;5096870;28;19972;-74
2022/06/25 00:20:40;;;;;;;;;;;;;;;14.85;97.33;96272.47;5096459;28;19964;-75
2022/06/25 00:23:06;;;;;;;;;;;;;;;14.80;95.60;96275.84;5096305;28;19957;-74
2022/06/25 00:25:32;;;;;;;;;;;;;;;14.79;96.31;96282.19;5095122;28;20015;-74
2022/06/25 00:27:58;;;;;;;;;;;;;;;14.81;95.83;96277.47;5096113;28;19975;-75
2022/06/25 00:30:24;;;;;;;;;;;;;;;14.82;95.99;96274.56;5096636;28;20305;-74
2022/06/25 00:32:50;;;;;;;;;;;;;;;14.85;96.24;96277.75;5095256;28;19962;-74
2022/06/25 00:35:16;;;;;;;;;;;;;;;14.86;95.50;96281.97;5096353;28;20484;-74
2022/06/25 00:37:41;;;;;;;;;;;;;;;14.85;95.17;96275.91;5096367;28;20001;-74
2022/06/25 00:40:08;;;;;;;;;;;;;;;14.84;94.82;96278.78;5096075;28;20022;-74
2022/06/25 00:42:34;;;;;;;;;;;;;;;14.81;95.02;96282.72;5095792;28;19965;-74
2022/06/25 00:45:00;;;;;;;;;;;;;;;14.81;95.15;96280.88;5095426;28;19999;-74
2022/06/25 00:47:26;;;;;;;;;;;;;;;14.83;94.79;96280.66;5096021;28;19962;-74
2022/06/25 00:49:53;;;;;;;;;;;;;;;14.85;94.53;96280.41;5095726;28;19988;-74
2022/06/25 00:52:19;;;;;;;;;;;;;;;14.85;93.82;96280.41;5095782;28;19967;-74
2022/06/25 00:54:49;;;;;;;;;;;;;;;14.86;92.99;96281.97;5095559;28;19965;-74
2022/06/25 00:57:24;;;;;;;;;;;;;;;14.82;92.84;96271.94;5095239;28;19966;-74
2022/06/25 00:59:51;;;;;;;;;;;;;;;14.83;93.38;96275.38;5082252;28;20426;-74
2022/06/25 01:02:17;;;;;;;;;;;;;;;14.83;92.90;96280.66;5095855;28;19962;-74
2022/06/25 01:04:43;;;;;;;;;;;;;;;14.83;92.63;96280.66;5095359;28;19967;-74
2022/06/25 01:07:09;;;;;;;;;;;;;;;14.82;92.54;96276.41;5093819;28;20432;-74
2022/06/25 01:09:36;;;;;;;;;;;;;;;14.79;92.05;96276.91;5095536;28;19970;-74
2022/06/25 01:12:02;;;;;;;;;;;;;;;14.75;92.55;96271.31;5095340;28;19965;-74
2022/06/25 01:14:28;;;;;;;;;;;;;;;14.72;92.19;96278.94;5095207;28;20028;-74
2022/06/25 01:16:54;;;;;;;;;;;;;;;14.70;92.07;96275.72;5095253;28;19966;-74
2022/06/25 01:19:20;;;;;;;;;;;;;;;14.66;91.63;96280.72;5095570;28;19974;-74
2022/06/25 01:21:45;;;;;;;;;;;;;;;14.62;92.22;96279.63;5095313;28;19989;-74
2022/06/25 01:24:12;;;;;;;;;;;;;;;14.61;92.29;96283.31;5095224;28;19974;-74
2022/06/25 01:26:39;;;;;;;;;;;;;;;14.59;91.89;96285.38;5094938;28;19991;-74
2022/06/25 01:29:05;;;;;;;;;;;;;;;14.56;91.73;96288.53;5095009;28;19960;-75
2022/06/25 01:31:31;;;;;;;;;;;;;;;14.54;91.69;96286.09;5094839;28;20352;-74
2022/06/25 01:33:58;;;;;;;;;;;;;;;14.53;91.63;96288.97;5094615;28;19975;-75
2022/06/25 01:36:24;;;;;;;;;;;;;;;14.50;91.74;96287.63;5095042;28;19968;-74
2022/06/25 01:38:50;;;;;;;;;;;;;;;14.50;91.77;96282.38;5094616;28;19974;-74
2022/06/25 01:41:16;;;;;;;;;;;;;;;14.49;91.82;96288.69;5095190;28;19965;-75
2022/06/25 01:43:42;;;;;;;;;;;;;;;14.49;91.70;96287.88;5085657;28;19963;-74
2022/06/25 01:46:08;;;;;;;;;;;;;;;14.46;91.83;96291.03;5094761;28;19964;-74
2022/06/25 01:48:34;;;;;;;;;;;;;;;14.39;91.55;96299.91;5094642;28;19989;-75
2022/06/25 01:51:00;;;;;;;;;;;;;;;14.38;91.66;96300.97;5094978;28;19957;-74
2022/06/25 01:53:27;;;;;;;;;;;;;;;14.35;91.72;96298.81;5093287;28;20414;-74
2022/06/25 01:55:53;;;;;;;;;;;;;;;14.34;91.75;96299.88;5094523;28;19977;-74
2022/06/25 01:58:19;;;;;;;;;;;;;;;14.32;91.80;96295.84;5094806;28;19970;-75
2022/06/25 02:00:45;;;;;;;;;;;;;;;14.31;91.68;96292.44;5094762;28;20490;-74
2022/06/25 02:03:11;;;;;;;;;;;;;;;14.31;91.37;96296.91;5094450;28;19979;-74
2022/06/25 02:08:21;;;;;;;;;;;;;;;14.27;91.10;96299.22;5085461;28;19967;-74
2022/06/25 02:10:48;;;;;;;;;;;;;;;14.25;91.10;96298.69;5094601;28;19975;-75
2022/06/25 02:13:14;;;;;;;;;;;;;;;14.25;91.38;96300.53;5094522;28;19970;-74
2022/06/25 02:15:40;;;;;;;;;;;;;;;14.24;90.78;96302.38;5094026;28;20003;-74
2022/06/25 02:18:06;;;;;;;;;;;;;;;14.23;90.82;96302.59;5094403;28;19977;-74
2022/06/25 02:20:32;;;;;;;;;;;;;;;14.20;90.46;96303.91;5093643;28;20450;-74
2022/06/25 02:22:58;;;;;;;;;;;;;;;14.18;90.90;96309.41;5094034;28;19960;-74
2022/06/25 02:25:23;;;;;;;;;;;;;;;14.17;90.67;96310.47;5094250;28;19972;-74
2022/06/25 02:27:49;;;;;;;;;;;;;;;14.16;90.74;96315.97;5094001;28;20064;-74
2022/06/25 02:30:15;;;;;;;;;;;;;;;14.15;91.05;96314.38;5093861;28;19955;-74
2022/06/25 02:32:41;;;;;;;;;;;;;;;14.14;91.01;96312.78;5093485;28;20332;-74
2022/06/25 02:35:08;;;;;;;;;;;;;;;14.12;91.09;96314.88;5092716;28;19958;-74
2022/06/25 02:37:34;;;;;;;;;;;;;;;14.11;90.92;96311.44;5094554;28;19968;-74
2022/06/25 02:39:59;;;;;;;;;;;;;;;14.10;90.60;96316.94;5093926;28;20341;-74
2022/06/25 02:42:31;;;;;;;;;;;;;;;14.08;90.48;96309.28;5094003;28;20017;-74
2022/06/25 02:44:57;;;;;;;;;;;;;;;14.07;90.49;96306.88;5094038;28;19971;-74
2022/06/25 02:47:26;;;;;;;;;;;;;;;14.07;90.87;96315.59;5093528;28;19971;-74
2022/06/25 02:49:51;;;;;;;;;;;;;;;14.05;90.74;96317.69;5094036;28;19975;-74
2022/06/25 02:52:17;;;;;;;;;;;;;;;14.04;90.84;96315.28;5093744;28;19978;-74
2022/06/25 02:54:43;;;;;;;;;;;;;;;14.01;90.54;96314.72;5094296;28;20065;-74
2022/06/25 02:59:53;;;;;;;;;;;;;;;13.99;90.29;96308.09;5081269;28;19977;-74
2022/06/25 03:02:19;;;;;;;;;;;;;;;13.99;90.37;96300.97;5093543;28;19964;-74
2022/06/25 03:04:45;;;;;;;;;;;;;;;13.99;89.85;96308.09;5093754;28;19965;-74
2022/06/25 03:07:11;;;;;;;;;;;;;;;13.96;90.13;96306.75;5093528;28;20013;-74
2022/06/25 03:09:37;;;;;;;;;;;;;;;13.95;89.99;96312.25;5096689;28;19972;-74
2022/06/25 03:12:03;;;;;;;;;;;;;;;13.93;90.01;96316.97;5097809;28;20321;-74
2022/06/25 03:14:29;;;;;;;;;;;;;;;13.91;90.44;96311.94;5097903;28;20341;-75
2022/06/25 03:16:55;;;;;;;;;;;;;;;13.90;90.70;96312.19;5098463;28;20038;-74
2022/06/25 03:19:20;;;;;;;;;;;;;;;13.87;90.87;96300.28;5097815;28;20086;-74
2022/06/25 03:21:46;;;;;;;;;;;;;;;13.85;90.69;96299.72;5097405;28;20026;-74
2022/06/25 03:24:12;;;;;;;;;;;;;;;13.84;90.29;96300.78;5097489;28;19962;-75
2022/06/25 03:26:38;;;;;;;;;;;;;;;13.84;90.19;96299.97;5097578;28;20021;-74
2022/06/25 03:29:04;;;;;;;;;;;;;;;13.84;90.18;96308.69;5097563;28;19970;-74
2022/06/25 03:31:30;;;;;;;;;;;;;;;13.83;90.54;96304.44;5097177;28;20466;-75
2022/06/25 03:33:56;;;;;;;;;;;;;;;13.84;90.53;96321.03;5098182;28;20331;-74
2022/06/25 03:36:22;;;;;;;;;;;;;;;13.81;90.23;96309.94;5097142;28;20053;-74
2022/06/25 03:38:48;;;;;;;;;;;;;;;13.78;90.96;96313.06;5095967;28;19973;-74
2022/06/25 03:41:32;;;;;;;;;;;;;;;13.78;90.93;96320.97;5097068;28;20053;-74
2022/06/25 03:43:58;;;;;;;;;;;;;;;13.77;90.92;96319.41;5097589;28;19979;-74
2022/06/25 03:46:24;;;;;;;;;;;;;;;13.78;91.00;96312.28;5095547;28;19977;-74
2022/06/25 03:48:50;;;;;;;;;;;;;;;13.77;90.79;96313.31;5097056;28;20059;-74
2022/06/25 03:51:16;;;;;;;;;;;;;;;13.76;90.64;96312.53;5097248;28;20014;-74
2022/06/25 03:53:42;;;;;;;;;;;;;;;13.77;90.63;96321.22;5097094;28;20002;-74
2022/06/25 03:56:08;;;;;;;;;;;;;;;13.76;90.98;96319.63;5096913;28;19961;-74
2022/06/25 03:58:34;;;;;;;;;;;;;;;13.76;90.93;96320.44;5097129;28;19955;-74
2022/06/25 04:01:00;;;;;;;;;;;;;;;13.75;91.13;96318.84;5096742;28;20049;-74
2022/06/25 04:03:26;;;;;;;;;;;;;;;13.76;91.22;96314.38;5096644;28;19955;-74
2022/06/25 04:05:52;;;;;;;;;;;;;;;13.73;91.51;96320.09;5096987;28;20061;-74
2022/06/25 04:08:18;;;;;;;;;;;;;;;13.73;91.34;96317.47;5096699;28;20427;-74
2022/06/25 04:10:44;;;;;;;;;;;;;;;13.72;90.90;96311.41;5096448;28;20415;-74
2022/06/25 04:13:10;;;;;;;;;;;;;;;13.75;90.65;96315.38;5096583;28;19975;-74
2022/06/25 04:15:36;;;;;;;;;;;;;;;13.79;90.83;96325.19;5096167;28;20027;-74
2022/06/25 04:18:03;;;;;;;;;;;;;;;13.85;90.61;96328.72;5096650;28;19952;-74
2022/06/25 04:20:29;;;;;;;;;;;;;;;13.90;90.70;96335.91;5096373;28;20451;-74
2022/06/25 04:22:54;;;;;;;;;;;;;;;13.96;91.20;96333.13;5096353;28;20008;-74
2022/06/25 04:25:20;;;;;;;;;;;;;;;14.02;91.47;96340.03;5096159;28;19963;-74
2022/06/25 04:30:31;;;;;;;;;;;;;;;14.14;91.65;96341.78;5096539;28;19955;-74
2022/06/25 04:32:57;;;;;;;;;;;;;;;14.18;91.72;96346.34;5096169;28;19973;-74
2022/06/25 04:35:22;;;;;;;;;;;;;;;14.28;91.84;96347.50;5096166;28;19971;-74
2022/06/25 04:37:48;;;;;;;;;;;;;;;14.35;91.01;96345.50;5096195;28;20001;-74
2022/06/25 04:40:14;;;;;;;;;;;;;;;14.38;90.80;96358.19;5096031;28;20019;-74
2022/06/25 04:42:40;;;;;;;;;;;;;;;14.42;90.48;96351.38;5095840;28;20339;-74
2022/06/25 04:45:06;;;;;;;;;;;;;;;14.48;91.07;96350.41;5096364;28;19966;-74
2022/06/25 04:47:32;;;;;;;;;;;;;;;14.55;90.84;96344.94;5096189;28;19973;-74
2022/06/25 04:49:58;;;;;;;;;;;;;;;14.66;91.86;96344.06;5095888;28;19969;-74
2022/06/25 04:52:24;;;;;;;;;;;;;;;14.79;91.70;96348.19;5095794;28;20033;-75
2022/06/25 04:54:50;;;;;;;;;;;;;;;14.93;90.94;96343.31;5095864;28;19970;-74
2022/06/25 04:57:16;;;;;;;;;;;;;;;15.06;90.19;96342.94;5095726;28;19966;-74
2022/06/25 04:59:42;;;;;;;;;;;;;;;15.18;89.86;96340.94;5095628;28;20020;-74
2022/06/25 05:02:07;;;;;;;;;;;;;;;15.31;88.93;96341.59;5095634;28;20418;-74
2022/06/25 05:04:33;;;;;;;;;;;;;;;15.37;88.86;96348.50;5095566;28;20440;-74
2022/06/25 05:06:59;;;;;;;;;;;;;;;15.40;87.92;96348.78;5095607;28;19966;-74
2022/06/25 05:09:26;;;;;;;;;;;;;;;15.51;88.31;96346.25;5095364;28;19978;-74
2022/06/25 05:11:51;;;;;;;;;;;;;;;15.68;86.06;96349.56;5095594;28;20335;-74
2022/06/25 05:14:17;;;;;;;;;;;;;;;15.82;87.04;96360.53;5095312;28;19994;-74
2022/06/25 05:16:45;;;;;;;;;;;;;;;16.01;85.36;96353.78;5095929;28;19980;-74
2022/06/25 05:19:11;;;;;;;;;;;;;;;16.16;85.77;96353.09;5095175;28;19966;-74
2022/06/25 05:21:37;;;;;;;;;;;;;;;16.39;84.94;96357.19;5095321;28;19972;-74
2022/06/25 05:24:03;;;;;;;;;;;;;;;16.56;83.48;96351.72;5095310;28;19952;-75
2022/06/25 05:26:29;;;;;;;;;;;;;;;16.73;83.17;96350.72;5095318;28;19959;-74
2022/06/25 05:28:55;;;;;;;;;;;;;;;16.85;82.73;96356.63;5095095;28;19955;-75
2022/06/25 05:31:22;;;;;;;;;;;;;;;16.99;82.58;96363.03;5094924;28;19960;-74
2022/06/25 05:33:49;;;;;;;;;;;;;;;17.15;82.56;96361.22;5094917;28;19975;-74
2022/06/25 05:36:15;;;;;;;;;;;;;;;17.32;81.50;96371.56;5094897;28;19978;-74
2022/06/25 05:38:41;;;;;;;;;;;;;;;17.59;81.94;96368.69;5093621;28;20435;-74
2022/06/25 05:41:10;;;;;;;;;;;;;;;17.75;79.81;96368.72;5094707;28;20015;-74
2022/06/25 05:43:36;;;;;;;;;;;;;;;17.93;78.98;96359.44;5094336;28;19955;-74
2022/06/25 05:46:02;;;;;;;;;;;;;;;18.13;80.09;96366.59;5094788;28;19979;-74
2022/06/25 05:48:28;;;;;;;;;;;;;;;18.25;76.52;96364.47;5095116;28;19977;-74
2022/06/25 05:50:55;;;;;;;;;;;;;;;18.21;76.58;96366.84;5093375;28;20356;-73
2022/06/25 05:53:20;;;;;;;;;;;;;;;18.14;77.35;96374.31;5094644;28;19965;-74
2022/06/25 05:55:46;;;;;;;;;;;;;;;18.10;77.01;96356.50;5094714;28;20469;-74
2022/06/25 05:58:12;;;;;;;;;;;;;;;18.17;77.67;96367.66;5094636;28;19969;-74
2022/06/25 06:00:38;;;;;;;;;;;;;;;18.30;78.94;96371.63;5094672;28;20036;-73
2022/06/25 06:03:33;;;;;;;;;;;;;;;18.41;77.73;96371.31;5078116;28;19976;-74
2022/06/25 06:05:59;;;;;;;;;;;;;;;18.67;77.78;96374.69;5093368;28;20018;-74
2022/06/25 06:08:25;;;;;;;;;;;;;;;18.82;76.27;96373.88;5094318;28;20360;-73
2022/06/25 06:10:51;;;;;;;;;;;;;;;18.90;77.03;96372.50;5094365;28;19957;-73
2022/06/25 06:13:17;;;;;;;;;;;;;;;19.08;75.02;96368.44;5093853;28;20320;-74
2022/06/25 06:15:43;;;;;;;;;;;;;;;19.25;74.40;96370.72;5094391;28;19992;-74
2022/06/25 06:18:09;;;;;;;;;;;;;;;19.31;73.71;96371.50;5094055;28;19974;-74
2022/06/25 06:20:35;;;;;;;;;;;;;;;19.38;73.21;96372.78;5094498;28;20022;-74
2022/06/25 06:23:01;;;;;;;;;;;;;;;19.44;73.57;96376.19;5093663;28;19961;-73
2022/06/25 06:25:27;;;;;;;;;;;;;;;19.47;74.86;96381.75;5094153;28;19969;-74
2022/06/25 06:27:53;;;;;;;;;;;;;;;19.53;71.40;96371.06;5094133;28;19963;-73
2022/06/25 06:30:19;;;;;;;;;;;;;;;19.53;73.39;96376.38;5094395;28;19959;-73
2022/06/25 06:32:46;;;;;;;;;;;;;;;19.66;73.74;96379.22;5093809;28;19998;-73
2022/06/25 06:35:11;;;;;;;;;;;;;;;19.76;71.77;96366.94;5093961;28;20345;-73
2022/06/25 06:37:37;;;;;;;;;;;;;;;19.72;72.31;96379.22;5094041;28;19959;-73
2022/06/25 06:40:04;;;;;;;;;;;;;;;19.79;70.83;96372.50;5093845;28;19978;-74
2022/06/25 06:42:30;;;;;;;;;;;;;;;19.91;72.57;96387.31;5093360;28;20431;-73
2022/06/25 06:44:56;;;;;;;;;;;;;;;20.01;72.68;96390.72;5093318;28;20064;-74
2022/06/25 06:47:22;;;;;;;;;;;;;;;20.30;72.35;96381.13;5093860;28;20046;-73
2022/06/25 06:49:48;;;;;;;;;;;;;;;20.46;70.16;96369.22;5092417;28;20156;-73
2022/06/25 06:52:14;;;;;;;;;;;;;;;20.47;69.39;96366.28;5093660;28;20043;-73
2022/06/25 06:54:48;;;;;;;;;;;;;;;20.48;72.12;96377.75;5094209;28;19992;-75
2022/06/25 06:57:14;;;;;;;;;;;;;;;20.51;70.26;96371.03;5093694;28;20371;-73
2022/06/25 06:59:40;;;;;;;;;;;;;;;20.50;70.47;96372.13;5093448;28;20506;-74
2022/06/25 07:02:06;;;;;;;;;;;;;;;20.42;69.91;96360.22;5093617;28;20351;-74
2022/06/25 07:04:32;;;;;;;;;;;;;;;20.37;71.47;96366.41;5093505;28;19956;-73
2022/06/25 07:06:58;;;;;;;;;;;;;;;20.39;71.29;96364.25;5093953;28;20430;-73
2022/06/25 07:09:24;;;;;;;;;;;;;;;20.36;68.51;96348.81;5093679;28;19970;-74
2022/06/25 07:11:50;;;;;;;;;;;;;;;20.17;72.22;96366.59;5093443;28;20019;-74
2022/06/25 07:14:15;;;;;;;;;;;;;;;20.01;70.74;96356.09;5093557;28;19986;-74
2022/06/25 07:17:02;;;;;;;;;;;;;;;19.97;71.30;96368.38;5067994;28;20427;-74
2022/06/25 07:19:27;;;;;;;;;;;;;;;20.00;72.14;96373.13;5093646;28;19961;-74
2022/06/25 07:21:54;;;;;;;;;;;;;;;20.33;72.64;96369.91;5093373;28;20052;-74
2022/06/25 07:24:23;;;;;;;;;;;;;;;20.68;72.19;96361.56;5093505;28;19963;-74
2022/06/25 07:26:49;;;;;;;;;;;;;;;20.80;68.81;96336.38;5093403;28;19960;-73
2022/06/25 07:29:15;;;;;;;;;;;;;;;20.98;69.51;96345.47;5093301;28;19967;-74
2022/06/25 07:31:41;;;;;;;;;;;;;;;21.11;70.32;96350.09;5092685;28;19957;-74
2022/06/25 07:34:07;;;;;;;;;;;;;;;21.14;65.46;96317.50;5093395;28;19969;-74
2022/06/25 07:36:33;;;;;;;;;;;;;;;21.27;67.67;96327.47;5093427;28;19962;-73
2022/06/25 07:39:00;;;;;;;;;;;;;;;21.34;66.73;96316.44;5093117;28;19968;-74
2022/06/25 07:41:27;;;;;;;;;;;;;;;21.39;68.45;96332.34;5093126;28;20327;-74
2022/06/25 07:43:53;;;;;;;;;;;;;;;21.49;67.74;96329.53;5093113;28;19972;-74
2022/06/25 07:46:19;;;;;;;;;;;;;;;21.54;65.74;96302.00;5093047;28;20014;-74
2022/06/25 07:48:45;;;;;;;;;;;;;;;21.57;67.01;96313.97;5093038;28;19966;-74
2022/06/25 07:53:55;;;;;;;;;;;;;;;21.97;63.15;96285.78;5093284;28;19965;-74
2022/06/25 07:56:22;;;;;;;;;;;;;;;22.06;66.63;96320.59;5097587;28;19955;-74
2022/06/25 07:58:56;;;;;;;;;;;;;;;21.99;64.98;96304.19;5096691;28;19975;-74
2022/06/25 08:01:22;;;;;;;;;;;;;;;21.84;65.19;96311.38;5096608;28;20051;-74
2022/06/25 08:03:48;;;;;;;;;;;;;;;21.95;68.00;96324.56;5095666;28;20014;-74
2022/06/25 08:06:15;;;;;;;;;;;;;;;22.00;65.02;96297.75;5096405;28;20020;-74
2022/06/25 08:08:41;;;;;;;;;;;;;;;22.04;64.33;96302.22;5097071;28;19955;-74
2022/06/25 08:11:07;;;;;;;;;;;;;;;22.13;66.30;96314.88;5096528;28;19966;-74
2022/06/25 08:13:33;;;;;;;;;;;;;;;22.24;64.71;96309.09;5096728;28;20389;-74
2022/06/25 08:15:59;;;;;;;;;;;;;;;22.28;61.36;96263.88;5096861;28;19987;-74
2022/06/25 08:18:25;;;;;;;;;;;;;;;22.12;61.71;96274.03;5096777;28;20429;-75
2022/06/25 08:20:51;;;;;;;;;;;;;;;21.93;63.41;96292.81;5096407;28;19987;-74
2022/06/25 08:23:17;;;;;;;;;;;;;;;21.95;63.56;96290.63;5096694;28;19967;-73
2022/06/25 08:25:43;;;;;;;;;;;;;;;22.05;63.74;96300.34;5096331;28;19960;-73
2022/06/25 08:28:09;;;;;;;;;;;;;;;22.25;64.28;96301.88;5096468;28;19966;-74
2022/06/25 08:30:35;;;;;;;;;;;;;;;22.43;63.75;96300.19;5096295;28;20012;-74
2022/06/25 08:33:01;;;;;;;;;;;;;;;22.52;61.90;96282.38;5096295;28;19954;-74
2022/06/25 08:35:27;;;;;;;;;;;;;;;22.53;62.36;96289.28;5096133;28;19957;-74
2022/06/25 08:37:53;;;;;;;;;;;;;;;22.58;62.03;96280.38;5095959;28;19995;-74
2022/06/25 08:40:20;;;;;;;;;;;;;;;22.54;60.60;96279.41;5096219;28;19977;-74
2022/06/25 08:42:50;;;;;;;;;;;;;;;22.44;59.78;96275.84;5096033;28;19966;-74
2022/06/25 08:45:17;;;;;;;;;;;;;;;22.38;60.30;96266.34;5096005;28;19967;-74
2022/06/25 08:47:44;;;;;;;;;;;;;;;22.32;59.88;96258.72;5095868;28;19962;-75
2022/06/25 08:50:11;;;;;;;;;;;;;;;22.24;57.42;96236.19;5095967;28;19968;-74
2022/06/25 08:52:37;;;;;;;;;;;;;;;22.23;60.18;96258.63;5096055;28;19969;-74
2022/06/25 08:55:03;;;;;;;;;;;;;;;22.42;62.72;96278.00;5095750;28;19962;-74
2022/06/25 08:57:30;;;;;;;;;;;;;;;22.55;59.57;96254.25;5096124;28;19975;-74
2022/06/25 08:59:56;;;;;;;;;;;;;;;22.71;61.24;96268.88;5095647;28;19962;-74
2022/06/25 09:02:22;;;;;;;;;;;;;;;22.82;58.33;96246.16;5095718;28;19967;-73
2022/06/25 09:04:48;;;;;;;;;;;;;;;22.78;58.24;96236.38;5095588;28;19962;-74
2022/06/25 09:07:15;;;;;;;;;;;;;;;22.85;56.21;96216.16;5094579;28;19969;-74
2022/06/25 09:09:45;;;;;;;;;;;;;;;22.84;54.95;96201.19;5095625;28;19972;-73
2022/06/25 09:12:15;;;;;;;;;;;;;;;22.88;58.53;96247.63;5095842;28;19960;-75
2022/06/25 09:14:41;;;;;;;;;;;;;;;23.02;58.53;96239.59;5095407;28;19981;-74
2022/06/25 09:17:12;;;;;;;;;;;;;;;23.07;57.88;96233.34;5095213;28;19961;-74
2022/06/25 09:19:43;;;;;;;;;;;;;;;23.07;59.60;96247.50;5095387;28;19962;-74
2022/06/25 09:22:10;;;;;;;;;;;;;;;23.17;60.21;96259.06;5093860;28;20442;-74
2022/06/25 09:24:47;;;;;;;;;;;;;;;23.21;55.13;96209.22;5095542;28;19958;-74
2022/06/25 09:27:14;;;;;;;;;;;;;;;23.04;53.64;96183.94;5095180;28;19967;-73
2022/06/25 09:29:40;;;;;;;;;;;;;;;23.05;57.07;96222.94;5095009;28;19990;-74
2022/06/25 09:32:06;;;;;;;;;;;;;;;23.20;55.52;96211.09;5095094;28;20412;-73
2022/06/25 09:34:34;;;;;;;;;;;;;;;23.27;54.36;96190.06;5095126;28;19975;-74
2022/06/25 09:37:19;;;;;;;;;;;;;;;23.38;55.60;96187.13;5095170;28;19957;-74
2022/06/25 09:39:46;;;;;;;;;;;;;;;23.30;55.00;96176.06;5094976;28;19956;-73
2022/06/25 09:42:28;;;;;;;;;;;;;;;23.38;55.99;96197.84;5094708;28;19975;-74
2022/06/25 09:44:58;;;;;;;;;;;;;;;23.38;53.40;96189.81;5095320;28;19971;-73
2022/06/25 09:47:24;;;;;;;;;;;;;;;23.46;56.61;96205.13;5094833;28;19961;-73
2022/06/25 09:49:50;;;;;;;;;;;;;;;23.58;55.54;96188.47;5095158;28;19975;-74
2022/06/25 09:52:16;;;;;;;;;;;;;;;23.51;53.86;96180.91;5094680;28;19997;-73
2022/06/25 09:54:41;;;;;;;;;;;;;;;23.54;54.47;96185.66;5094655;28;19970;-74
2022/06/25 09:57:08;;;;;;;;;;;;;;;23.64;55.83;96192.59;5095278;28;19965;-74
2022/06/25 09:59:36;;;;;;;;;;;;;;;23.75;53.35;96185.09;5094964;28;19962;-73
2022/06/25 10:02:03;;;;;;;;;;;;;;;23.86;54.77;96179.19;5094329;28;19967;-73
2022/06/25 10:04:30;;;;;;;;;;;;;;;24.01;52.93;96148.50;5094604;28;19968;-73
2022/06/25 10:06:56;;;;;;;;;;;;;;;24.03;52.77;96140.94;5093178;28;19960;-75
2022/06/25 10:09:25;;;;;;;;;;;;;;;24.01;54.35;96158.44;5094701;28;19959;-73
2022/06/25 10:11:51;;;;;;;;;;;;;;;24.00;52.20;96152.31;5094649;28;20417;-73
2022/06/25 10:14:17;;;;;;;;;;;;;;;23.86;50.90;96130.97;5094237;28;20449;-73
2022/06/25 10:16:44;;;;;;;;;;;;;;;23.69;49.87;96129.00;5094242;28;19971;-74
2022/06/25 10:19:10;;;;;;;;;;;;;;;23.74;46.97;96108.56;5094364;28;19971;-73
2022/06/25 10:21:36;;;;;;;;;;;;;;;23.78;48.21;96160.41;5094071;28;20339;-74
2022/06/25 10:24:04;;;;;;;;;;;;;;;23.95;51.54;96200.63;5094496;28;19965;-75
2022/06/25 10:26:30;;;;;;;;;;;;;;;24.23;50.60;96179.78;5081988;28;19962;-74
2022/06/25 10:28:56;;;;;;;;;;;;;;;24.33;46.92;96153.78;5093968;28;19963;-74
2022/06/25 10:31:22;;;;;;;;;;;;;;;24.48;52.17;96212.28;5094503;28;19955;-74
2022/06/25 10:33:52;;;;;;;;;;;;;;;24.57;46.05;96148.78;5093903;28;20040;-74
2022/06/25 10:36:17;;;;;;;;;;;;;;;24.72;50.49;96193.09;5094086;28;19965;-74
2022/06/25 10:38:43;;;;;;;;;;;;;;;24.87;48.91;96173.84;5093784;28;19976;-74
2022/06/25 10:43:57;;;;;;;;;;;;;;;25.14;49.58;96188.03;5094497;28;19967;-74
2022/06/25 10:46:25;;;;;;;;;;;;;;;25.30;45.44;96150.75;5093988;28;19971;-74
2022/06/25 10:49:18;;;;;;;;;;;;;;;25.33;46.94;96176.19;5090807;28;19963;-74
2022/06/25 10:51:46;;;;;;;;;;;;;;;25.12;46.96;96192.94;5094451;28;19966;-74
2022/06/25 10:54:14;;;;;;;;;;;;;;;25.02;46.50;96193.25;5094139;28;19962;-73
2022/06/25 10:56:44;;;;;;;;;;;;;;;24.98;46.82;96193.09;5093718;28;19966;-74
2022/06/25 10:59:14;;;;;;;;;;;;;;;25.03;47.47;96198.31;5093332;28;19980;-73
2022/06/25 11:01:40;;;;;;;;;;;;;;;25.09;44.22;96167.53;5093715;28;20465;-75
2022/06/25 11:04:07;;;;;;;;;;;;;;;24.97;42.04;96153.16;5093696;28;19957;-74
2022/06/25 11:06:34;;;;;;;;;;;;;;;25.10;46.80;96184.41;5093935;28;19965;-74
2022/06/25 11:09:11;;;;;;;;;;;;;;;25.20;44.55;96161.78;5093680;28;19966;-74
2022/06/25 11:11:38;;;;;;;;;;;;;;;25.26;45.25;96173.97;5086509;28;19972;-73
2022/06/25 11:14:11;;;;;;;;;;;;;;;25.27;44.68;96168.28;5093256;28;19988;-74
2022/06/25 11:16:37;;;;;;;;;;;;;;;25.24;45.43;96182.38;5093048;28;19963;-74
2022/06/25 11:19:03;;;;;;;;;;;;;;;25.46;42.81;96161.78;5082580;28;19955;-73
2022/06/25 11:21:36;;;;;;;;;;;;;;;25.67;43.07;96149.22;5093457;28;19967;-74
2022/06/25 11:24:12;;;;;;;;;;;;;;;25.70;40.78;96134.34;5093285;28;20327;-74
2022/06/25 11:29:29;;;;;;;;;;;;;;;25.52;39.65;96161.28;5094658;28;19966;-74
2022/06/25 11:31:56;;;;;;;;;;;;;;;25.63;44.13;96191.25;5096248;28;19950;-74
2022/06/25 11:34:23;;;;;;;;;;;;;;;25.75;42.40;96161.03;5097384;28;19957;-74
2022/06/25 11:37:15;;;;;;;;;;;;;;;26.02;43.95;96184.03;5097367;28;19956;-73
2022/06/25 11:39:44;;;;;;;;;;;;;;;26.05;41.51;96166.44;5095061;28;19965;-73
2022/06/25 11:42:10;;;;;;;;;;;;;;;26.11;42.23;96171.31;5097202;28;19974;-74
2022/06/25 11:44:49;;;;;;;;;;;;;;;26.10;37.85;96148.25;5097179;28;19959;-74
2022/06/25 11:47:19;;;;;;;;;;;;;;;26.10;38.16;96156.31;5097077;28;19978;-73
2022/06/25 11:49:46;;;;;;;;;;;;;;;26.05;39.39;96155.72;5097001;28;19959;-74
2022/06/25 11:52:12;;;;;;;;;;;;;;;26.15;40.74;96168.00;5097237;28;19966;-74
2022/06/25 11:54:40;;;;;;;;;;;;;;;26.35;40.42;96156.47;5097274;28;19964;-73
2022/06/25 11:57:07;;;;;;;;;;;;;;;26.62;40.34;96155.19;5095624;28;19969;-73
2022/06/25 11:59:35;;;;;;;;;;;;;;;26.61;40.51;96153.63;5096985;28;20344;-75
2022/06/25 12:02:03;;;;;;;;;;;;;;;26.55;42.78;96172.94;5096954;28;19969;-73
2022/06/25 12:04:44;;;;;;;;;;;;;;;26.70;43.69;96165.09;5096812;28;19964;-74
2022/06/25 12:07:17;;;;;;;;;;;;;;;26.99;41.20;96157.25;5096852;28;20066;-74
2022/06/25 12:09:43;;;;;;;;;;;;;;;26.86;40.98;96149.13;5096909;28;19977;-74
2022/06/25 12:12:09;;;;;;;;;;;;;;;26.88;42.68;96157.66;5096538;28;19955;-74
2022/06/25 12:14:36;;;;;;;;;;;;;;;26.75;38.55;96136.41;5096555;28;19983;-73
2022/06/25 12:17:04;;;;;;;;;;;;;;;26.44;38.39;96135.69;5096537;28;19971;-74
2022/06/25 12:19:45;;;;;;;;;;;;;;;26.40;40.98;96147.44;5096527;28;19980;-74
2022/06/25 12:22:18;;;;;;;;;;;;;;;26.47;39.06;96145.00;5096394;28;19977;-74
2022/06/25 12:24:47;;;;;;;;;;;;;;;26.51;41.79;96151.28;5096374;28;19977;-73
2022/06/25 12:27:13;;;;;;;;;;;;;;;26.52;39.42;96134.84;5096335;28;19966;-74
2022/06/25 12:29:39;;;;;;;;;;;;;;;26.50;35.43;96117.44;5096389;28;20385;-74
2022/06/25 12:32:05;;;;;;;;;;;;;;;26.60;39.60;96127.06;5096708;28;19962;-73
2022/06/25 12:34:31;;;;;;;;;;;;;;;26.79;40.40;96138.13;5096326;28;19958;-73
2022/06/25 12:36:59;;;;;;;;;;;;;;;26.93;39.79;96127.84;5096215;28;19961;-74
2022/06/25 12:39:49;;;;;;;;;;;;;;;27.09;39.19;96117.25;5096243;28;20439;-74
2022/06/25 12:42:15;;;;;;;;;;;;;;;27.30;38.58;96114.53;5088998;28;19986;-74
2022/06/25 12:44:41;;;;;;;;;;;;;;;27.29;37.44;96104.88;5096028;28;19972;-73
2022/06/25 12:47:07;;;;;;;;;;;;;;;27.22;38.73;96117.28;5096052;28;19985;-73
2022/06/25 12:49:48;;;;;;;;;;;;;;;27.11;37.02;96103.47;5096003;28;20007;-74
2022/06/25 12:52:16;;;;;;;;;;;;;;;27.05;38.62;96110.97;5094507;28;19952;-74
2022/06/25 12:54:52;;;;;;;;;;;;;;;27.03;39.20;96113.19;5095791;28;20457;-74
2022/06/25 12:57:25;;;;;;;;;;;;;;;27.22;39.43;96114.59;5095869;28;19969;-74
2022/06/25 12:59:51;;;;;;;;;;;;;;;27.48;38.07;96096.25;5095602;28;19963;-74
2022/06/25 13:02:18;;;;;;;;;;;;;;;27.67;36.85;96081.44;5095767;28;19997;-73
2022/06/25 13:04:44;;;;;;;;;;;;;;;27.68;37.44;96086.50;5095431;28;19959;-73